createdAt,value
2019-05-20T00:00:27.725Z,22.20
2019-05-20T00:02:55.062Z,24.67
2019-05-20T00:05:22.365Z,25.80
2019-05-20T00:07:49.658Z,29.70
2019-05-20T00:10:17.017Z,20.27
2019-05-20T00:12:44.385Z,22.03
2019-05-20T00:15:11.737Z,22.13
2019-05-20T00:17:39.081Z,23.33
2019-05-20T00:20:07.254Z,19.77
2019-05-20T00:22:34.530Z,22.27
2019-05-20T00:25:01.819Z,20.87
2019-05-20T00:27:29.168Z,20.83
2019-05-20T00:29:56.474Z,22.13
2019-05-20T00:32:40.029Z,19.67
2019-05-20T00:34:52.781Z,21.13
2019-05-20T00:37:20.061Z,18.80
2019-05-20T00:39:47.348Z,22.80
2019-05-20T00:42:14.673Z,19.63
2019-05-20T00:44:41.955Z,22.93
2019-05-20T00:47:09.704Z,21.27
2019-05-20T00:49:37.012Z,23.27
2019-05-20T00:52:04.419Z,21.07
2019-05-20T00:54:31.733Z,20.77
2019-05-20T00:56:59.033Z,22.17
2019-05-20T00:59:26.327Z,23.63
2019-05-20T01:01:53.888Z,23.40
2019-05-20T01:04:21.229Z,23.67
2019-05-20T01:06:48.520Z,25.70
2019-05-20T01:09:15.797Z,22.47
2019-05-20T01:11:43.144Z,22.60
2019-05-20T01:14:10.489Z,20.90
2019-05-20T01:16:37.773Z,21.90
2019-05-20T01:19:05.071Z,20.47
2019-05-20T01:21:32.365Z,22.43
2019-05-20T01:23:59.637Z,27.10
2019-05-20T01:26:26.954Z,23.57
2019-05-20T01:28:54.220Z,25.67
2019-05-20T01:31:21.511Z,28.27
2019-05-20T01:33:48.812Z,29.70
2019-05-20T01:36:16.110Z,30.53
2019-05-20T01:38:43.390Z,33.07
2019-05-20T01:41:10.703Z,31.70
2019-05-20T01:43:37.980Z,29.77
2019-05-20T01:46:05.251Z,25.47
2019-05-20T01:48:32.558Z,28.40
2019-05-20T01:50:59.830Z,27.03
2019-05-20T01:53:27.119Z,27.33
2019-05-20T01:55:54.538Z,26.63
2019-05-20T01:58:21.822Z,23.67
2019-05-20T02:00:49.095Z,20.67
2019-05-20T02:03:30.200Z,22.93
2019-05-20T02:05:45.541Z,23.57
2019-05-20T02:08:12.826Z,20.70
2019-05-20T02:10:40.126Z,20.50
2019-05-20T02:13:07.468Z,21.90
2019-05-20T02:15:39.374Z,19.13
2019-05-20T02:18:06.677Z,19.50
2019-05-20T02:20:33.953Z,22.90
2019-05-20T02:23:15.054Z,19.03
2019-05-20T02:25:46.561Z,18.23
2019-05-20T02:28:12.413Z,19.17
2019-05-20T02:30:39.737Z,19.70
2019-05-20T02:33:07.034Z,19.67
2019-05-20T02:35:34.320Z,22.73
2019-05-20T02:38:01.678Z,21.90
2019-05-20T02:40:28.964Z,21.80
2019-05-20T02:42:56.242Z,22.73
2019-05-20T02:45:23.547Z,21.07
2019-05-20T02:47:50.823Z,20.73
2019-05-20T02:50:18.109Z,24.33
2019-05-20T02:52:45.491Z,23.60
2019-05-20T02:55:12.900Z,23.67
2019-05-20T02:57:40.182Z,23.27
2019-05-20T03:00:07.570Z,28.00
2019-05-20T03:02:34.966Z,24.43
2019-05-20T03:05:02.246Z,32.37
2019-05-20T03:07:29.560Z,27.20
2019-05-20T03:09:56.874Z,23.93
2019-05-20T03:12:24.208Z,26.77
2019-05-20T03:14:51.505Z,22.80
2019-05-20T03:17:18.780Z,24.53
2019-05-20T03:19:46.053Z,24.70
2019-05-20T03:22:13.361Z,24.50
2019-05-20T03:24:40.637Z,23.27
2019-05-20T03:27:07.922Z,22.77
2019-05-20T03:29:35.306Z,24.80
2019-05-20T03:32:02.586Z,26.30
2019-05-20T03:34:45.864Z,23.70
2019-05-20T03:36:58.936Z,22.80
2019-05-20T03:39:26.253Z,25.57
2019-05-20T03:41:53.537Z,21.57
2019-05-20T03:44:20.867Z,23.07
2019-05-20T03:46:48.209Z,22.47
2019-05-20T03:49:15.490Z,26.00
2019-05-20T03:51:42.805Z,23.00
2019-05-20T03:54:10.090Z,22.63
2019-05-20T03:56:37.369Z,23.20
2019-05-20T03:59:04.685Z,23.13
2019-05-20T04:01:31.964Z,22.60
2019-05-20T04:03:59.320Z,27.20
2019-05-20T04:06:26.633Z,22.73
2019-05-20T04:08:53.906Z,22.67
2019-05-20T04:11:21.257Z,21.00
2019-05-20T04:13:48.562Z,27.53
2019-05-20T04:16:15.846Z,24.47
2019-05-20T04:18:43.121Z,28.23
2019-05-20T04:21:10.449Z,23.97
2019-05-20T04:23:37.824Z,23.87
2019-05-20T04:26:05.171Z,22.63
2019-05-20T04:28:32.521Z,21.60
2019-05-20T04:30:59.849Z,21.33
2019-05-20T04:33:27.298Z,21.13
2019-05-20T04:35:54.619Z,20.87
2019-05-20T04:38:21.915Z,21.73
2019-05-20T04:40:49.188Z,22.97
2019-05-20T04:43:16.496Z,29.20
2019-05-20T04:45:43.781Z,28.07
2019-05-20T04:48:13.684Z,25.90
2019-05-20T04:50:40.154Z,28.60
2019-05-20T04:53:07.497Z,26.47
2019-05-20T04:55:34.774Z,24.60
2019-05-20T04:58:02.120Z,21.77
2019-05-20T05:00:45.937Z,24.53
2019-05-20T05:03:13.298Z,24.37
2019-05-20T05:05:40.643Z,26.40
2019-05-20T05:08:07.967Z,24.90
2019-05-20T05:10:35.313Z,28.30
2019-05-20T05:13:02.582Z,24.67
2019-05-20T05:15:29.883Z,26.73
2019-05-20T05:17:57.167Z,21.73
2019-05-20T05:20:24.504Z,25.10
2019-05-20T05:22:51.889Z,24.53
2019-05-20T05:25:19.257Z,28.40
2019-05-20T05:27:47.233Z,26.87
2019-05-20T05:30:14.621Z,27.90
2019-05-20T05:32:42.422Z,22.50
2019-05-20T05:35:16.541Z,23.57
2019-05-20T05:37:43.993Z,26.50
2019-05-20T05:40:13.124Z,26.60
2019-05-20T05:42:40.532Z,28.87
2019-05-20T05:45:08.054Z,25.43
2019-05-20T05:47:35.430Z,32.20
2019-05-20T05:50:03.477Z,30.67
2019-05-20T05:52:30.763Z,28.03
2019-05-20T05:54:58.041Z,28.30
2019-05-20T05:57:25.344Z,27.33
2019-05-20T05:59:52.613Z,29.50
2019-05-20T06:02:19.910Z,30.90
2019-05-20T06:04:47.213Z,29.63
2019-05-20T06:07:14.492Z,32.13
2019-05-20T06:09:41.794Z,27.97
2019-05-20T06:12:09.220Z,35.13
2019-05-20T06:14:36.551Z,30.10
2019-05-20T06:17:03.909Z,27.23
2019-05-20T06:19:31.283Z,33.63
2019-05-20T06:21:58.573Z,30.03
2019-05-20T06:24:25.863Z,28.10
2019-05-20T06:26:53.180Z,28.80
2019-05-20T06:29:20.533Z,27.33
2019-05-20T06:31:47.800Z,31.57
2019-05-20T06:34:15.205Z,32.57
2019-05-20T06:36:44.202Z,29.50
2019-05-20T06:39:12.356Z,31.27
2019-05-20T06:41:39.745Z,25.73
2019-05-20T06:44:07.034Z,25.10
2019-05-20T06:46:34.390Z,30.37
2019-05-20T06:49:01.677Z,25.60
2019-05-20T06:51:28.958Z,29.00
2019-05-20T06:53:56.271Z,29.53
2019-05-20T06:56:23.626Z,27.00
2019-05-20T06:58:50.985Z,27.07
2019-05-20T07:01:18.324Z,28.10
2019-05-20T07:03:45.661Z,27.70
2019-05-20T07:06:13.021Z,34.43
2019-05-20T07:08:40.325Z,27.60
2019-05-20T07:11:07.624Z,28.63
2019-05-20T07:13:34.965Z,24.00
2019-05-20T07:16:02.347Z,23.10
2019-05-20T07:18:29.697Z,27.30
2019-05-20T07:20:56.970Z,26.87
2019-05-20T07:23:24.541Z,25.60
2019-05-20T07:25:51.841Z,26.37
2019-05-20T07:28:19.184Z,23.97
2019-05-20T07:30:46.561Z,25.20
2019-05-20T07:33:13.869Z,29.37
2019-05-20T07:35:43.327Z,21.30
2019-05-20T07:38:10.622Z,25.13
2019-05-20T07:40:37.970Z,22.20
2019-05-20T07:43:05.428Z,19.67
2019-05-20T07:45:34.272Z,21.80
2019-05-20T07:48:02.018Z,24.33
2019-05-20T07:50:29.476Z,23.47
2019-05-20T07:53:00.330Z,23.20
2019-05-20T07:55:27.369Z,20.03
2019-05-20T07:57:56.265Z,20.50
2019-05-20T08:00:23.538Z,21.87
2019-05-20T08:02:50.924Z,22.13
2019-05-20T08:05:18.349Z,23.80
2019-05-20T08:07:51.986Z,23.83
2019-05-20T08:10:14.708Z,20.67
2019-05-20T08:12:41.993Z,18.13
2019-05-20T08:15:09.542Z,23.17
2019-05-20T08:17:36.848Z,19.73
2019-05-20T08:20:05.511Z,17.47
2019-05-20T08:22:32.801Z,14.47
2019-05-20T08:25:00.103Z,20.70
2019-05-20T08:27:27.449Z,14.43
2019-05-20T08:29:54.733Z,14.33
2019-05-20T08:32:22.083Z,15.53
2019-05-20T08:34:49.402Z,14.80
2019-05-20T08:37:16.709Z,16.03
2019-05-20T08:39:43.993Z,15.70
2019-05-20T08:42:11.278Z,16.47
2019-05-20T08:44:38.572Z,14.77
2019-05-20T08:47:05.884Z,16.80
2019-05-20T08:49:33.345Z,14.67
2019-05-20T08:52:00.728Z,15.47
2019-05-20T08:54:28.145Z,14.60
2019-05-20T08:56:55.459Z,15.60
2019-05-20T08:59:22.756Z,15.93
2019-05-20T09:01:50.172Z,14.20
2019-05-20T09:04:17.465Z,16.03
2019-05-20T09:06:44.761Z,14.73
2019-05-20T09:09:12.516Z,14.70
2019-05-20T09:11:40.082Z,12.93
2019-05-20T09:14:07.384Z,13.20
2019-05-20T09:16:34.729Z,12.53
2019-05-20T09:19:03.613Z,11.80
2019-05-20T09:21:30.885Z,13.63
2019-05-20T09:23:58.161Z,12.03
2019-05-20T09:26:25.537Z,12.67
2019-05-20T09:28:52.817Z,10.07
2019-05-20T09:31:20.179Z,9.90
2019-05-20T09:33:47.541Z,9.43
2019-05-20T09:36:14.968Z,8.97
2019-05-20T09:38:42.325Z,8.53
2019-05-20T09:41:09.665Z,13.03
2019-05-20T09:43:36.928Z,7.23
2019-05-20T09:46:08.020Z,8.03
2019-05-20T09:48:33.311Z,10.17
2019-05-20T09:51:00.586Z,10.27
2019-05-20T09:53:27.884Z,9.47
2019-05-20T09:55:55.161Z,8.83
2019-05-20T09:58:22.514Z,10.40
2019-05-20T10:00:49.897Z,10.27
2019-05-20T10:03:17.172Z,10.17
2019-05-20T10:05:44.516Z,11.83
2019-05-20T10:08:11.806Z,8.43
2019-05-20T10:10:39.145Z,8.20
2019-05-20T10:13:07.024Z,8.30
2019-05-20T10:15:34.948Z,8.80
2019-05-20T10:18:02.233Z,7.70
2019-05-20T10:20:29.589Z,6.50
2019-05-20T10:22:56.849Z,5.23
2019-05-20T10:25:24.185Z,7.73
2019-05-20T10:27:51.526Z,5.23
2019-05-20T10:30:19.342Z,7.20
2019-05-20T10:32:46.624Z,5.63
2019-05-20T10:35:14.011Z,5.90
2019-05-20T10:37:41.345Z,6.77
2019-05-20T10:40:08.781Z,5.20
2019-05-20T10:42:36.138Z,7.53
2019-05-20T10:45:03.603Z,6.90
2019-05-20T10:47:31.142Z,5.23
2019-05-20T10:49:58.412Z,5.93
2019-05-20T10:52:25.951Z,7.73
2019-05-20T10:54:53.259Z,5.43
2019-05-20T10:57:20.523Z,5.60
2019-05-20T10:59:47.801Z,5.20
2019-05-20T11:02:15.129Z,5.30
2019-05-20T11:04:42.393Z,5.70
2019-05-20T11:07:09.705Z,4.77
2019-05-20T11:09:37.038Z,6.63
2019-05-20T11:12:04.465Z,5.83
2019-05-20T11:14:31.846Z,8.30
2019-05-20T11:16:59.126Z,8.23
2019-05-20T11:19:27.666Z,7.87
2019-05-20T11:21:55.417Z,6.67
2019-05-20T11:24:22.752Z,7.00
2019-05-20T11:26:50.026Z,6.03
2019-05-20T11:29:17.331Z,5.43
2019-05-20T11:31:44.633Z,4.67
2019-05-20T11:34:11.967Z,4.23
2019-05-20T11:36:39.346Z,3.47
2019-05-20T11:39:07.411Z,3.30
2019-05-20T11:44:04.040Z,2.90
2019-05-20T11:46:31.317Z,3.00
2019-05-20T11:48:58.650Z,2.20
2019-05-20T11:51:25.966Z,1.70
2019-05-20T11:53:53.307Z,2.60
2019-05-20T11:56:20.577Z,3.03
2019-05-20T11:58:48.020Z,2.77
2019-05-20T12:01:15.429Z,2.10
2019-05-20T12:03:42.702Z,2.10
2019-05-20T12:06:10.067Z,1.93
2019-05-20T12:08:37.367Z,2.23
2019-05-20T12:11:04.637Z,7.03
2019-05-20T12:13:31.925Z,1.77
2019-05-20T12:15:59.241Z,1.90
2019-05-20T12:18:26.532Z,2.23
2019-05-20T12:20:53.887Z,1.43
2019-05-20T12:23:21.233Z,1.27
2019-05-20T12:25:48.513Z,1.60
2019-05-20T12:28:15.802Z,1.73
2019-05-20T12:30:43.103Z,1.50
2019-05-20T12:33:18.460Z,1.67
2019-05-20T12:35:39.528Z,1.77
2019-05-20T12:38:06.800Z,4.73
2019-05-20T12:40:34.136Z,1.40
2019-05-20T12:43:01.499Z,1.40
2019-05-20T12:45:28.808Z,1.77
2019-05-20T12:47:56.432Z,1.53
2019-05-20T12:50:23.850Z,1.03
2019-05-20T12:52:51.358Z,1.90
2019-05-20T12:55:18.793Z,1.13
2019-05-20T12:57:46.364Z,1.40
2019-05-20T13:00:15.341Z,1.10
2019-05-20T13:02:42.736Z,0.70
2019-05-20T13:05:10.452Z,0.87
2019-05-20T13:07:37.736Z,0.80
2019-05-20T13:10:26.118Z,1.20
2019-05-20T13:12:35.787Z,1.17
2019-05-20T13:15:04.886Z,1.63
2019-05-20T13:17:32.453Z,1.17
2019-05-20T13:20:00.523Z,1.47
2019-05-20T13:22:27.799Z,1.07
2019-05-20T13:24:55.097Z,1.03
2019-05-20T13:27:22.467Z,2.10
2019-05-20T13:29:49.792Z,1.20
2019-05-20T13:32:17.092Z,1.00
2019-05-20T13:34:44.365Z,0.90
2019-05-20T13:37:11.706Z,2.00
2019-05-20T13:39:40.354Z,1.50
2019-05-20T13:42:07.734Z,1.20
2019-05-20T13:44:35.077Z,0.70
2019-05-20T13:47:02.459Z,1.00
2019-05-20T13:49:29.750Z,0.90
2019-05-20T13:51:57.105Z,0.97
2019-05-20T13:54:24.504Z,3.07
2019-05-20T13:56:51.942Z,1.93
2019-05-20T13:59:19.337Z,0.90
2019-05-20T14:01:46.609Z,0.83
2019-05-20T14:04:13.888Z,1.63
2019-05-20T14:06:41.244Z,1.73
2019-05-20T14:09:08.541Z,0.90
2019-05-20T14:11:35.849Z,3.43
2019-05-20T14:14:03.121Z,7.50
2019-05-20T14:16:31.869Z,3.53
2019-05-20T14:18:59.182Z,1.83
2019-05-20T14:21:26.458Z,5.80
2019-05-20T14:23:53.821Z,5.13
2019-05-20T14:26:21.176Z,6.10
2019-05-20T14:28:48.521Z,4.13
2019-05-20T14:31:15.879Z,5.07
2019-05-20T14:33:43.164Z,3.00
2019-05-20T14:36:10.510Z,2.73
2019-05-20T14:38:37.797Z,4.30
2019-05-20T14:41:20.857Z,3.10
2019-05-20T14:43:37.112Z,3.63
2019-05-20T14:46:04.453Z,3.70
2019-05-20T14:48:31.733Z,3.50
2019-05-20T14:50:59.069Z,2.80
2019-05-20T14:53:26.395Z,4.47
2019-05-20T14:55:53.683Z,2.97
2019-05-20T14:58:20.967Z,4.07
2019-05-20T15:00:48.274Z,4.40
2019-05-20T15:03:15.547Z,2.90
2019-05-20T15:05:42.820Z,3.27
2019-05-20T15:08:10.863Z,5.17
2019-05-20T15:10:38.253Z,3.30
2019-05-20T15:13:05.649Z,4.60
2019-05-20T15:15:33.440Z,4.97
2019-05-20T15:18:00.798Z,2.83
2019-05-20T15:20:28.149Z,6.70
2019-05-20T15:22:55.495Z,4.30
2019-05-20T15:25:22.817Z,3.33
2019-05-20T15:27:50.093Z,4.60
2019-05-20T15:30:17.485Z,5.33
2019-05-20T15:32:44.770Z,5.77
2019-05-20T15:35:12.213Z,3.70
2019-05-20T15:37:39.505Z,3.90
2019-05-20T15:40:06.846Z,4.23
2019-05-20T15:42:34.121Z,3.70
2019-05-20T15:45:01.414Z,3.60
2019-05-20T15:47:28.680Z,4.20
2019-05-20T15:49:55.952Z,4.43
2019-05-20T15:52:23.248Z,3.60
2019-05-20T15:54:50.580Z,3.83
2019-05-20T15:57:17.848Z,3.93
2019-05-20T15:59:46.572Z,6.97
2019-05-20T16:02:14.410Z,4.37
2019-05-20T16:04:41.846Z,7.13
2019-05-20T16:07:09.224Z,4.70
2019-05-20T16:09:36.496Z,4.27
2019-05-20T16:12:03.765Z,4.10
2019-05-20T16:14:31.066Z,6.73
2019-05-20T16:16:58.408Z,3.73
2019-05-20T16:19:25.705Z,8.37
2019-05-20T16:21:53.052Z,7.43
2019-05-20T16:24:20.326Z,3.60
2019-05-20T16:26:47.601Z,4.47
2019-05-20T16:29:14.910Z,3.40
2019-05-20T16:31:43.658Z,3.90
2019-05-20T16:34:11.013Z,4.30
2019-05-20T16:36:38.370Z,9.23
2019-05-20T16:39:06.314Z,4.17
2019-05-20T16:41:33.587Z,4.97
2019-05-20T16:44:01.020Z,4.37
2019-05-20T16:46:28.340Z,4.63
2019-05-20T16:48:55.617Z,4.00
2019-05-20T16:51:22.913Z,4.43
2019-05-20T16:53:50.243Z,6.13
2019-05-20T16:56:17.527Z,4.30
2019-05-20T16:58:44.888Z,3.73
2019-05-20T17:01:12.180Z,5.40
2019-05-20T17:03:39.511Z,3.93
2019-05-20T17:06:06.994Z,3.60
2019-05-20T17:08:35.251Z,4.30
2019-05-20T17:11:02.622Z,4.37
2019-05-20T17:13:29.976Z,5.70
2019-05-20T17:15:57.255Z,3.87
2019-05-20T17:18:24.525Z,6.57
2019-05-20T17:20:51.869Z,4.10
2019-05-20T17:23:19.173Z,4.27
2019-05-20T17:25:46.441Z,4.07
2019-05-20T17:28:13.753Z,4.20
2019-05-20T17:30:45.633Z,4.30
2019-05-20T17:33:10.043Z,6.00
2019-05-20T17:35:37.348Z,4.00
2019-05-20T17:38:04.633Z,4.20
2019-05-20T17:40:31.893Z,4.23
2019-05-20T17:42:59.262Z,3.60
2019-05-20T17:45:26.529Z,3.97
2019-05-20T17:47:53.862Z,3.80
2019-05-20T17:50:21.388Z,5.00
2019-05-20T17:52:48.658Z,6.17
2019-05-20T17:55:15.989Z,3.10
2019-05-20T17:57:43.283Z,2.90
2019-05-20T18:00:12.733Z,3.23
2019-05-20T18:02:40.069Z,2.00
2019-05-20T18:05:07.517Z,1.93
2019-05-20T18:07:34.853Z,6.70
2019-05-20T18:10:02.435Z,2.03
2019-05-20T18:12:29.809Z,1.73
2019-05-20T18:14:58.723Z,1.70
2019-05-20T18:17:25.986Z,3.50
2019-05-20T18:19:53.373Z,2.53
2019-05-20T18:22:20.638Z,2.33
2019-05-20T18:24:47.913Z,1.77
2019-05-20T18:27:15.301Z,1.63
2019-05-20T18:29:42.733Z,2.20
2019-05-20T18:32:10.082Z,3.30
2019-05-20T18:34:37.475Z,1.00
2019-05-20T18:37:04.809Z,1.43
2019-05-20T18:39:32.093Z,3.23
2019-05-20T18:41:59.408Z,2.33
2019-05-20T18:44:26.684Z,2.33
2019-05-20T18:46:53.945Z,1.83
2019-05-20T18:49:21.260Z,1.20
2019-05-20T18:51:48.561Z,1.40
2019-05-20T18:54:15.905Z,1.63
2019-05-20T18:56:43.254Z,1.30
2019-05-20T18:59:10.658Z,1.37
2019-05-20T19:01:50.547Z,2.10
2019-05-20T19:04:07.150Z,1.40
2019-05-20T19:06:34.453Z,1.63
2019-05-20T19:09:01.719Z,2.73
2019-05-20T19:11:29.021Z,1.50
2019-05-20T19:13:59.191Z,1.43
2019-05-20T19:16:26.525Z,4.13
2019-05-20T19:18:53.829Z,2.57
2019-05-20T19:21:21.098Z,1.63
2019-05-20T19:23:48.360Z,1.63
2019-05-20T19:26:24.489Z,1.47
2019-05-20T19:28:44.649Z,1.63
2019-05-20T19:31:11.925Z,1.67
2019-05-20T19:33:39.233Z,1.87
2019-05-20T19:36:06.516Z,1.87
2019-05-20T19:38:35.026Z,1.73
2019-05-20T19:41:02.653Z,1.90
2019-05-20T19:43:31.050Z,2.70
2019-05-20T19:45:58.314Z,2.10
2019-05-20T19:48:25.623Z,2.30
2019-05-20T19:50:52.893Z,4.10
2019-05-20T19:53:20.156Z,1.77
2019-05-20T19:55:47.448Z,2.40
2019-05-20T19:58:14.840Z,6.00
2019-05-20T20:00:42.115Z,1.63
2019-05-20T20:03:09.506Z,1.80
2019-05-20T20:05:36.884Z,4.67
2019-05-20T20:08:04.345Z,3.43
2019-05-20T20:10:31.684Z,2.57
2019-05-20T20:12:59.125Z,2.13
2019-05-20T20:15:26.385Z,1.70
2019-05-20T20:17:53.695Z,4.20
2019-05-20T20:20:22.599Z,1.30
2019-05-20T20:22:49.933Z,1.60
2019-05-20T20:25:17.237Z,5.53
2019-05-20T20:27:44.506Z,3.10
2019-05-20T20:30:11.878Z,1.50
2019-05-20T20:32:39.260Z,2.13
2019-05-20T20:35:06.873Z,3.47
2019-05-20T20:37:34.454Z,1.60
2019-05-20T20:40:01.809Z,3.27
2019-05-20T20:42:29.121Z,1.43
2019-05-20T20:44:56.389Z,1.33
2019-05-20T20:47:23.698Z,1.70
2019-05-20T20:49:50.982Z,2.83
2019-05-20T20:52:18.257Z,1.73
2019-05-20T20:54:45.689Z,2.13
2019-05-20T20:57:12.953Z,1.60
2019-05-20T20:59:40.267Z,2.43
2019-05-20T21:02:07.817Z,2.43
2019-05-20T21:04:35.093Z,1.73
2019-05-20T21:07:02.369Z,2.00
2019-05-20T21:09:29.849Z,1.50
2019-05-20T21:11:57.160Z,1.70
2019-05-20T21:14:24.426Z,1.77
2019-05-20T21:16:51.780Z,2.17
2019-05-20T21:19:19.044Z,2.00
2019-05-20T21:21:46.313Z,1.47
2019-05-20T21:24:13.585Z,1.40
2019-05-20T21:26:40.848Z,2.57
2019-05-20T21:29:08.136Z,1.50
2019-05-20T21:31:35.403Z,1.70
2019-05-20T21:34:02.675Z,2.30
2019-05-20T21:36:29.982Z,1.87
2019-05-20T21:38:57.303Z,2.37
2019-05-20T21:41:24.671Z,1.90
2019-05-20T21:43:51.928Z,1.90
2019-05-20T21:46:19.202Z,2.03
2019-05-20T21:48:46.461Z,1.73
2019-05-20T21:51:13.766Z,2.20
2019-05-20T21:53:41.029Z,3.57
2019-05-20T21:56:08.342Z,2.03
2019-05-20T21:58:35.748Z,3.23
2019-05-20T22:01:03.348Z,5.80
2019-05-20T22:03:30.680Z,3.57
2019-05-20T22:05:57.997Z,4.43
2019-05-20T22:08:25.330Z,6.50
2019-05-20T22:10:52.912Z,3.00
2019-05-20T22:13:20.298Z,3.10
2019-05-20T22:15:47.561Z,3.37
2019-05-20T22:18:14.825Z,9.03
2019-05-20T22:20:42.152Z,7.13
2019-05-20T22:23:16.777Z,3.23
2019-05-20T22:25:45.977Z,3.03
2019-05-20T22:28:13.232Z,6.60
2019-05-20T22:30:40.497Z,5.87
2019-05-20T22:33:07.936Z,2.40
2019-05-20T22:35:35.768Z,4.50
2019-05-20T22:38:03.141Z,3.10
2019-05-20T22:40:30.613Z,6.60
2019-05-20T22:42:57.946Z,3.07
2019-05-20T22:45:25.215Z,2.90
2019-05-20T22:47:52.510Z,4.13
2019-05-20T22:50:19.793Z,3.10
2019-05-20T22:52:47.057Z,4.37
2019-05-20T22:55:14.381Z,3.00
2019-05-20T22:57:41.646Z,2.07
2019-05-20T23:00:09.024Z,2.10
2019-05-20T23:02:36.333Z,3.23
2019-05-20T23:05:03.674Z,6.30
2019-05-20T23:07:30.945Z,2.43
2019-05-20T23:09:58.233Z,1.87
2019-05-20T23:12:25.497Z,2.60
2019-05-20T23:14:52.763Z,2.53
2019-05-20T23:17:20.062Z,2.83
2019-05-20T23:19:47.337Z,2.53
2019-05-20T23:22:14.604Z,5.63
2019-05-20T23:24:41.898Z,2.77
2019-05-20T23:27:09.166Z,3.47
2019-05-20T23:29:36.459Z,2.67
2019-05-20T23:32:03.747Z,2.90
2019-05-20T23:34:31.020Z,3.93
2019-05-20T23:36:58.366Z,3.63
2019-05-20T23:39:25.678Z,5.60
2019-05-20T23:41:53.130Z,3.77
2019-05-20T23:44:20.481Z,2.57
2019-05-20T23:46:47.860Z,2.77
2019-05-20T23:49:15.148Z,2.47
2019-05-20T23:51:43.377Z,5.10
2019-05-20T23:54:10.684Z,4.50
2019-05-20T23:56:37.949Z,2.80
2019-05-20T23:59:05.225Z,5.23
